Time;durP1;ratioP1;P1;durP2;ratioP2;P2;SDS_P1;SDS_P2;PMS_P1;PMS_P2;Temp;Humidity;BMP_temperature;BMP_pressure;BME280_temperature;BME280_humidity;BME280_pressure;Samples;Min_cycle;Max_cycle;Signal;HPM_P1;HPM_P2
2023/11/16 00:00:57;;;;;;;6.22;3.40;;;;;;;3.97;100.00;97065.09;5025880;28;20048;-73
2023/11/16 00:03:23;;;;;;;7.90;4.20;;;;;;;3.85;100.00;97064.88;5019021;28;20401;-72
2023/11/16 00:05:49;;;;;;;11.23;4.40;;;;;;;3.78;100.00;97063.44;5022541;28;20041;-73
2023/11/16 00:08:16;;;;;;;6.93;4.15;;;;;;;3.72;100.00;97056.53;5014617;28;20044;-76
2023/11/16 00:10:42;;;;;;;8.23;3.97;;;;;;;3.72;100.00;97055.75;5021977;28;20426;-74
2023/11/16 00:13:09;;;;;;;12.10;4.03;;;;;;;3.67;100.00;97051.25;5017457;28;20129;-74
2023/11/16 00:15:37;;;;;;;8.77;3.75;;;;;;;3.74;100.00;97057.03;5018363;28;20045;-74
2023/11/16 00:18:04;;;;;;;9.27;3.25;;;;;;;3.99;100.00;97052.81;5018095;28;20072;-72
2023/11/16 00:20:32;;;;;;;7.65;3.42;;;;;;;4.16;100.00;97048.53;5018790;28;20458;-74
2023/11/16 00:22:58;;;;;;;8.38;3.67;;;;;;;4.37;100.00;97052.25;5012802;28;20037;-73
2023/11/16 00:25:23;;;;;;;7.38;3.88;;;;;;;4.45;100.00;97060.69;5017078;28;20627;-74
2023/11/16 00:27:50;;;;;;;8.63;3.95;;;;;;;4.26;100.00;97055.59;5028419;28;20063;-73
2023/11/16 00:30:15;;;;;;;6.60;2.88;;;;;;;4.08;100.00;97066.38;5027730;28;20037;-72
2023/11/16 00:32:41;;;;;;;8.18;3.90;;;;;;;3.98;100.00;97066.66;5029820;28;20113;-73
2023/11/16 00:35:07;;;;;;;10.65;3.63;;;;;;;3.96;100.00;97068.91;5029724;28;20101;-73
2023/11/16 00:37:34;;;;;;;7.00;3.35;;;;;;;3.83;100.00;97055.19;5034655;28;20081;-74
2023/11/16 00:39:59;;;;;;;9.35;3.78;;;;;;;3.82;100.00;97055.47;5017132;28;20033;-73
2023/11/16 00:42:25;;;;;;;9.75;3.53;;;;;;;3.76;100.00;97059.44;5019594;28;20049;-76
2023/11/16 00:44:50;;;;;;;10.63;4.22;;;;;;;3.75;100.00;97055.94;5023196;28;20041;-72
2023/11/16 00:47:19;;;;;;;7.75;3.60;;;;;;;3.83;100.00;97057.88;5020224;28;20042;-70
2023/11/16 00:49:46;;;;;;;16.10;4.17;;;;;;;3.80;100.00;97061.22;5022068;28;20615;-73
2023/11/16 00:52:11;;;;;;;7.80;3.83;;;;;;;3.81;100.00;97049.25;5016422;28;20355;-75
2023/11/16 00:54:37;;;;;;;6.35;3.30;;;;;;;3.85;100.00;97054.84;5020024;28;20045;-76
2023/11/16 00:57:03;;;;;;;12.27;3.28;;;;;;;3.96;100.00;97056.16;5017320;28;20037;-77
2023/11/16 00:59:30;;;;;;;9.02;3.08;;;;;;;3.98;100.00;97058.53;5021540;28;20138;-75
2023/11/16 01:01:58;;;;;;;14.02;4.10;;;;;;;3.66;100.00;97057.03;5020839;28;20041;-76
2023/11/16 01:04:24;;;;;;;8.55;3.35;;;;;;;3.55;100.00;97057.28;5012792;28;20053;-75
2023/11/16 01:06:50;;;;;;;10.32;3.28;;;;;;;3.55;100.00;97061.91;5014897;28;20042;-75
2023/11/16 01:09:16;;;;;;;7.00;3.70;;;;;;;3.57;100.00;97059.69;5010410;28;20052;-76
2023/11/16 01:11:42;;;;;;;6.60;3.72;;;;;;;3.57;100.00;97052.34;5020983;28;20703;-76
2023/11/16 01:14:08;;;;;;;12.82;4.32;;;;;;;3.61;100.00;97055.25;5019122;28;20037;-75
2023/11/16 01:16:42;;;;;;;10.10;3.72;;;;;;;3.61;100.00;97055.25;5016836;28;20052;-75
2023/11/16 01:19:08;;;;;;;10.48;3.60;;;;;;;3.61;100.00;97056.03;5016296;28;20038;-75
2023/11/16 01:21:41;;;;;;;7.43;3.42;;;;;;;3.62;100.00;97049.50;5015591;28;20064;-77
2023/11/16 01:24:12;;;;;;;5.97;3.45;;;;;;;3.67;100.00;97047.75;5010180;28;20076;-76
2023/11/16 01:26:41;;;;;;;11.45;3.20;;;;;;;3.79;100.00;97058.81;5008748;28;20042;-76
2023/11/16 01:29:09;;;;;;;7.85;3.50;;;;;;;3.82;100.00;97066.31;5016898;28;20152;-76
2023/11/16 01:31:35;;;;;;;11.45;3.95;;;;;;;3.72;100.00;97072.81;5013597;28;20045;-76
2023/11/16 01:34:01;;;;;;;9.57;3.38;;;;;;;3.80;100.00;97068.56;5019964;28;20052;-77
2023/11/16 01:36:26;;;;;;;10.95;4.22;;;;;;;3.63;100.00;97069.25;5015050;28;20080;-76
2023/11/16 01:38:52;;;;;;;10.52;3.55;;;;;;;3.77;100.00;97074.59;5020872;28;20052;-75
2023/11/16 01:41:18;;;;;;;7.97;3.65;;;;;;;3.88;100.00;97065.06;5016903;28;20037;-76
2023/11/16 01:43:45;;;;;;;9.88;3.25;;;;;;;3.83;100.00;97055.19;5019388;28;20045;-75
2023/11/16 01:46:12;;;;;;;9.15;3.15;;;;;;;3.87;100.00;97057.25;5016566;28;20068;-74
2023/11/16 01:48:41;;;;;;;8.82;3.72;;;;;;;3.80;100.00;97050.38;5021596;28;20593;-74
2023/11/16 01:51:11;;;;;;;8.32;4.00;;;;;;;3.78;100.00;97044.47;5015362;28;20064;-75
2023/11/16 01:54:04;;;;;;;9.80;3.22;;;;;;;3.82;100.00;97047.34;5021284;28;20033;-75
2023/11/16 01:56:32;;;;;;;11.73;3.53;;;;;;;3.92;100.00;97054.38;5022889;28;20041;-74
2023/11/16 01:59:02;;;;;;;8.70;2.88;;;;;;;4.00;100.00;97037.38;5012792;28;20037;-75
2023/11/16 02:01:33;;;;;;;9.35;3.40;;;;;;;4.18;100.00;97049.03;5015921;28;20042;-73
2023/11/16 02:03:58;;;;;;;7.75;3.10;;;;;;;4.32;100.00;97029.91;5027634;28;20107;-75
2023/11/16 02:06:24;;;;;;;9.18;2.95;;;;;;;4.52;100.00;97025.75;5019341;28;20249;-75
2023/11/16 02:08:50;;;;;;;9.45;2.53;;;;;;;4.80;100.00;97031.66;5028610;28;20044;-75
2023/11/16 02:11:16;;;;;;;8.20;2.38;;;;;;;4.69;100.00;97030.41;5011762;28;20049;-76
2023/11/16 02:13:41;;;;;;;10.52;2.78;;;;;;;4.64;100.00;97023.22;5019214;28;20080;-74
2023/11/16 02:16:07;;;;;;;7.93;2.38;;;;;;;4.88;100.00;97014.59;5017577;28;20033;-76
2023/11/16 02:18:34;;;;;;;6.03;2.10;;;;;;;5.17;100.00;97013.09;5013835;28;20400;-74
2023/11/16 02:21:00;;;;;;;5.43;1.90;;;;;;;5.45;100.00;97002.59;5020462;28;20080;-76
2023/11/16 02:23:25;;;;;;;7.28;1.80;;;;;;;5.69;100.00;97006.66;5015036;28;20041;-78
2023/11/16 02:25:56;;;;;;;10.02;1.90;;;;;;;5.82;100.00;96996.69;5029040;28;20034;-76
2023/11/16 02:28:22;;;;;;;8.63;1.70;;;;;;;5.80;100.00;96996.22;5014488;28;20913;-77
2023/11/16 02:30:49;;;;;;;13.30;2.00;;;;;;;5.92;100.00;96997.13;5027211;28;20040;-76
2023/11/16 02:33:15;;;;;;;6.10;1.75;;;;;;;5.99;100.00;96995.81;5008694;28;20049;-74
2023/11/16 02:35:41;;;;;;;4.78;2.30;;;;;;;5.98;100.00;96994.22;5014046;28;20119;-77
2023/11/16 02:38:08;;;;;;;4.28;1.70;;;;;;;5.96;100.00;96982.88;5009870;28;20037;-76
2023/11/16 02:40:34;;;;;;;7.30;1.85;;;;;;;5.88;100.00;96982.56;5021961;28;20072;-75
2023/11/16 02:43:02;;;;;;;6.00;2.45;;;;;;;5.77;100.00;96972.41;5023056;28;20030;-73
2023/11/16 02:45:27;;;;;;;7.35;2.03;;;;;;;5.76;100.00;96982.47;5034468;28;20037;-76
2023/11/16 02:47:53;;;;;;;8.63;1.88;;;;;;;5.59;100.00;96977.94;5022575;28;20042;-75
2023/11/16 02:50:22;;;;;;;8.13;2.00;;;;;;;5.44;100.00;96979.28;5015791;28;20045;-75
2023/11/16 02:52:52;;;;;;;6.10;1.75;;;;;;;5.45;100.00;96977.38;5020878;28;20037;-76
2023/11/16 02:55:20;;;;;;;6.53;1.90;;;;;;;5.27;100.00;96977.41;5017529;28;20629;-74
2023/11/16 02:57:45;;;;;;;7.22;1.88;;;;;;;5.15;100.00;96977.31;5021832;28;20041;-75
2023/11/16 03:00:12;;;;;;;5.30;2.50;;;;;;;4.96;100.00;96974.97;5019022;28;20044;-76
2023/11/16 03:02:44;;;;;;;7.25;2.17;;;;;;;4.68;100.00;96978.06;5024494;28;20184;-75
2023/11/16 03:05:14;;;;;;;5.63;2.05;;;;;;;4.58;100.00;96970.25;5011703;28;20083;-75
2023/11/16 03:07:40;;;;;;;6.95;2.08;;;;;;;4.48;100.00;96965.94;5028235;28;20046;-76
2023/11/16 03:10:07;;;;;;;6.38;2.15;;;;;;;4.43;100.00;96963.41;5038794;28;20033;-75
2023/11/16 03:12:33;;;;;;;5.28;1.98;;;;;;;4.44;100.00;96962.28;5031735;28;20054;-76
2023/11/16 03:14:58;;;;;;;6.68;2.33;;;;;;;4.37;100.00;96962.75;5025158;28;20044;-76
2023/11/16 03:17:24;;;;;;;6.13;2.40;;;;;;;4.25;100.00;96961.78;5016383;28;20873;-77
2023/11/16 03:19:49;;;;;;;4.90;1.90;;;;;;;4.06;100.00;96965.63;5022259;28;20063;-76
2023/11/16 03:22:15;;;;;;;7.80;2.42;;;;;;;3.95;100.00;96953.50;5018955;28;20049;-74
2023/11/16 03:24:40;;;;;;;8.02;2.55;;;;;;;3.73;100.00;96949.78;5014914;28;20523;-76
2023/11/16 03:27:06;;;;;;;6.95;2.40;;;;;;;3.58;100.00;96942.91;5018113;28;20159;-77
2023/11/16 03:29:34;;;;;;;6.35;3.30;;;;;;;3.48;100.00;96947.81;5022049;28;20068;-75
2023/11/16 03:31:59;;;;;;;8.50;2.67;;;;;;;3.35;100.00;96950.34;5021650;28;20040;-76
2023/11/16 03:34:25;;;;;;;6.97;2.80;;;;;;;3.37;100.00;96948.09;5019089;28;20045;-76
2023/11/16 03:36:51;;;;;;;8.40;3.20;;;;;;;3.31;100.00;96941.22;5022031;28;20041;-76
2023/11/16 03:39:17;;;;;;;4.63;2.63;;;;;;;3.40;100.00;96939.34;5013218;28;20124;-75
2023/11/16 03:41:43;;;;;;;10.18;2.95;;;;;;;3.48;100.00;96932.38;5021365;28;20050;-76
2023/11/16 03:44:09;;;;;;;6.57;2.90;;;;;;;3.58;100.00;96931.25;5019417;28;20049;-76
2023/11/16 03:46:34;;;;;;;4.70;2.78;;;;;;;3.63;100.00;96921.06;5013067;28;20037;-76
2023/11/16 03:49:00;;;;;;;7.22;2.88;;;;;;;3.71;100.00;96919.50;5013183;28;20052;-77
2023/11/16 03:51:29;;;;;;;9.20;2.50;;;;;;;3.69;100.00;96913.63;5015708;28;20284;-77
2023/11/16 03:53:56;;;;;;;6.50;2.50;;;;;;;3.80;100.00;96903.28;5022157;28;20140;-75
2023/11/16 03:56:22;;;;;;;6.05;2.60;;;;;;;3.78;100.00;96908.19;5007166;28;20060;-75
2023/11/16 03:58:47;;;;;;;8.27;2.55;;;;;;;3.78;100.00;96906.28;5019794;28;20038;-75
2023/11/16 04:01:13;;;;;;;5.22;2.33;;;;;;;3.83;100.00;96903.44;5017146;28;20052;-74
2023/11/16 04:03:39;;;;;;;10.45;2.95;;;;;;;3.74;100.00;96899.91;5017059;28;20056;-75
2023/11/16 04:06:04;;;;;;;6.13;2.70;;;;;;;3.77;100.00;96893.06;5015864;28;20069;-76
2023/11/16 04:08:30;;;;;;;6.63;2.53;;;;;;;3.59;100.00;96890.31;5008905;28;20407;-77
2023/11/16 04:10:55;;;;;;;5.10;2.92;;;;;;;3.47;100.00;96883.94;5020107;28;20041;-75
2023/11/16 04:13:21;;;;;;;6.88;2.65;;;;;;;3.43;100.00;96881.84;5017522;28;20049;-75
2023/11/16 04:15:47;;;;;;;3.85;2.40;;;;;;;3.48;100.00;96874.72;5019908;28;20033;-74
2023/11/16 04:18:12;;;;;;;12.57;3.20;;;;;;;3.41;100.00;96883.28;5016253;28;20037;-74
2023/11/16 04:20:37;;;;;;;8.90;2.80;;;;;;;3.45;100.00;96871.50;5036810;28;20053;-74
2023/11/16 04:23:03;;;;;;;10.88;2.75;;;;;;;3.32;100.00;96883.25;5021988;28;20037;-72
2023/11/16 04:25:29;;;;;;;4.18;2.80;;;;;;;3.16;100.00;96874.00;5027348;28;20048;-74
2023/11/16 04:27:59;;;;;;;8.65;3.13;;;;;;;3.08;100.00;96872.03;5032904;28;20113;-74
2023/11/16 04:30:28;;;;;;;12.23;3.53;;;;;;;2.96;100.00;96862.63;5019674;28;20052;-73
2023/11/16 04:32:56;;;;;;;7.13;2.70;;;;;;;2.93;100.00;96862.44;5022492;28;20435;-74
2023/11/16 04:35:23;;;;;;;10.10;2.97;;;;;;;3.01;100.00;96864.41;5016388;28;20072;-75
2023/11/16 04:37:50;;;;;;;5.05;2.53;;;;;;;3.04;100.00;96874.56;5023684;28;20069;-76
2023/11/16 04:40:15;;;;;;;6.43;2.40;;;;;;;3.04;100.00;96866.47;5002438;28;20503;-76
2023/11/16 04:42:44;;;;;;;3.67;2.38;;;;;;;2.87;100.00;96859.09;5020775;28;20041;-76
2023/11/16 04:45:11;;;;;;;7.72;2.90;;;;;;;2.80;100.00;96848.72;5016241;28;20052;-75
2023/11/16 04:47:44;;;;;;;11.50;4.20;;;;;;;2.77;100.00;96848.53;5018920;28;20038;-76
2023/11/16 04:50:13;;;;;;;11.20;3.15;;;;;;;2.68;100.00;96840.38;5011129;28;20088;-75
2023/11/16 04:52:40;;;;;;;8.55;3.42;;;;;;;2.66;100.00;96848.81;5016426;28;20655;-76
2023/11/16 04:55:06;;;;;;;9.95;3.92;;;;;;;2.65;100.00;96849.94;5064238;22;20132;-70
2023/11/16 04:57:32;;;;;;;17.15;7.75;;;;;;;2.61;100.00;96848.97;5039301;28;20100;-69
2023/11/16 04:59:57;;;;;;;21.00;7.82;;;;;;;2.72;100.00;96860.31;5033114;28;20041;-69
2023/11/16 05:02:23;;;;;;;13.93;6.78;;;;;;;2.79;100.00;96851.72;5016001;28;20608;-68
2023/11/16 05:04:49;;;;;;;6.60;3.35;;;;;;;2.51;100.00;96843.03;5032527;28;20410;-69
2023/11/16 05:07:15;;;;;;;6.93;2.72;;;;;;;2.06;100.00;96850.06;5013052;28;20405;-71
2023/11/16 05:09:41;;;;;;;4.85;2.60;;;;;;;1.81;100.00;96839.88;5030215;28;20037;-68
2023/11/16 05:12:08;;;;;;;6.85;2.90;;;;;;;1.74;100.00;96843.00;5022837;28;20135;-69
2023/11/16 05:14:37;;;;;;;7.03;2.97;;;;;;;1.79;100.00;96840.19;5037510;28;20132;-69
2023/11/16 05:17:03;;;;;;;9.95;2.85;;;;;;;1.96;100.00;96833.31;5052884;28;20091;-71
2023/11/16 05:19:29;;;;;;;7.03;2.90;;;;;;;2.00;100.00;96832.41;5034802;28;20040;-68
2023/11/16 05:21:54;;;;;;;9.57;3.47;;;;;;;1.97;100.00;96824.91;5033089;28;20598;-69
2023/11/16 05:24:20;;;;;;;9.85;4.30;;;;;;;1.95;100.00;96821.72;5029804;28;20164;-69
2023/11/16 05:26:46;;;;;;;11.52;4.10;;;;;;;2.09;100.00;96827.06;5030266;28;20134;-69
2023/11/16 05:29:11;;;;;;;11.48;6.20;;;;;;;2.32;100.00;96830.50;5029120;28;20072;-69
2023/11/16 05:31:37;;;;;;;11.40;5.30;;;;;;;2.41;100.00;96834.06;5031685;28;20625;-68
2023/11/16 05:34:04;;;;;;;8.65;3.83;;;;;;;2.48;100.00;96837.13;5028467;28;20586;-71
2023/11/16 05:36:30;;;;;;;7.97;4.38;;;;;;;2.49;100.00;96835.22;5052608;28;20067;-68
2023/11/16 05:38:57;;;;;;;9.77;4.35;;;;;;;2.58;100.00;96836.06;5032276;28;20511;-69
2023/11/16 05:41:22;;;;;;;8.23;4.05;;;;;;;2.50;100.00;96828.69;5044713;28;20117;-70
2023/11/16 05:43:48;;;;;;;10.15;3.47;;;;;;;2.52;100.00;96833.78;5051300;28;20064;-69
2023/11/16 05:46:14;;;;;;;8.27;3.40;;;;;;;2.56;100.00;96837.47;5043535;28;20479;-68
2023/11/16 05:48:40;;;;;;;10.38;3.30;;;;;;;2.51;100.00;96843.81;5038930;28;20084;-69
2023/11/16 05:51:05;;;;;;;4.63;3.30;;;;;;;2.47;100.00;96843.63;5033321;28;20068;-69
2023/11/16 05:53:31;;;;;;;11.60;3.58;;;;;;;2.46;100.00;96842.03;5036608;28;20094;-71
2023/11/16 05:55:57;;;;;;;10.73;3.15;;;;;;;2.39;100.00;96832.78;5038604;28;20102;-68
2023/11/16 05:58:23;;;;;;;11.75;3.45;;;;;;;2.12;100.00;96821.00;5033580;28;20661;-68
2023/11/16 06:00:48;;;;;;;9.00;3.30;;;;;;;1.82;100.00;96827.94;5037202;28;20060;-69
2023/11/16 06:03:14;;;;;;;5.70;3.58;;;;;;;1.58;100.00;96820.16;5033253;28;20039;-68
2023/11/16 06:05:41;;;;;;;7.10;4.10;;;;;;;1.45;100.00;96813.69;5039837;28;20071;-68
2023/11/16 06:08:07;;;;;;;8.35;4.05;;;;;;;1.44;100.00;96804.81;5034289;28;20399;-68
2023/11/16 06:10:32;;;;;;;8.25;4.32;;;;;;;1.52;100.00;96804.06;5050746;28;20049;-71
2023/11/16 06:12:59;;;;;;;7.40;4.10;;;;;;;1.64;100.00;96802.72;5047093;28;20037;-68
2023/11/16 06:15:25;;;;;;;9.43;4.85;;;;;;;1.89;100.00;96790.50;5050207;28;20538;-69
2023/11/16 06:17:54;;;;;;;11.18;4.70;;;;;;;1.84;100.00;96787.97;5043089;28;20049;-69
2023/11/16 06:20:20;;;;;;;10.27;4.40;;;;;;;1.92;100.00;96789.91;5038124;28;20048;-68
2023/11/16 06:22:46;;;;;;;8.98;4.45;;;;;;;1.96;100.00;96792.78;5047228;28;20579;-69
2023/11/16 06:25:12;;;;;;;9.15;4.50;;;;;;;1.98;100.00;96795.97;5036579;28;20450;-68
2023/11/16 06:27:38;;;;;;;8.02;4.60;;;;;;;1.97;100.00;96794.38;5042453;28;20068;-68
2023/11/16 06:30:06;;;;;;;11.88;4.38;;;;;;;1.95;100.00;96792.00;5030447;28;20049;-71
2023/11/16 06:32:32;;;;;;;8.32;4.20;;;;;;;1.94;100.00;96798.50;5038826;28;20056;-69
2023/11/16 06:34:58;;;;;;;6.68;4.13;;;;;;;2.00;100.00;96799.16;5056856;28;20049;-69
2023/11/16 06:37:23;;;;;;;9.88;3.88;;;;;;;1.95;100.00;96783.09;5038550;28;20543;-70
2023/11/16 06:39:49;;;;;;;9.18;4.30;;;;;;;1.94;100.00;96781.50;5044073;28;20041;-72
2023/11/16 06:42:14;;;;;;;9.00;4.90;;;;;;;1.92;100.00;96779.88;5026219;28;20044;-70
2023/11/16 06:44:40;;;;;;;8.88;3.97;;;;;;;1.82;100.00;96772.06;5051451;28;20045;-69
2023/11/16 06:47:06;;;;;;;11.48;3.95;;;;;;;1.72;100.00;96770.38;5037568;28;20041;-70
2023/11/16 06:49:32;;;;;;;6.20;3.45;;;;;;;1.79;100.00;96780.75;5051473;28;20059;-70
2023/11/16 06:51:57;;;;;;;15.45;4.25;;;;;;;1.92;100.00;96779.09;5061646;28;20481;-70
2023/11/16 06:54:23;;;;;;;8.15;3.60;;;;;;;2.07;100.00;96778.72;5057717;28;20147;-70
2023/11/16 06:56:49;;;;;;;8.30;3.85;;;;;;;2.22;100.00;96776.72;5051287;28;20075;-70
2023/11/16 06:59:19;;;;;;;9.70;4.47;;;;;;;2.42;100.00;96778.09;5047317;28;20079;-71
2023/11/16 07:01:45;;;;;;;;;;;;;;;2.59;100.00;96780.06;5061839;28;20051;-70
2023/11/16 07:04:11;;;;;;;8.48;3.10;;;;;;;2.66;100.00;96770.38;5056885;28;20344;-70
2023/11/16 07:06:37;;;;;;;13.23;3.60;;;;;;;2.76;100.00;96763.09;5063661;28;20131;-71
2023/11/16 07:09:03;;;;;;;8.48;3.35;;;;;;;2.72;100.00;96759.41;5068597;28;20087;-72
2023/11/16 07:11:28;;;;;;;12.63;3.55;;;;;;;2.66;100.00;96764.19;5059353;28;20147;-69
2023/11/16 07:13:54;;;;;;;9.73;3.60;;;;;;;2.77;100.00;96749.25;5061114;28;20506;-69
2023/11/16 07:16:20;;;;;;;11.80;3.60;;;;;;;2.90;100.00;96752.97;5056206;28;20272;-70
2023/11/16 07:18:47;;;;;;;3.83;2.97;;;;;;;3.02;100.00;96753.13;5061495;28;20055;-70
2023/11/16 07:21:14;;;;;;;8.95;3.58;;;;;;;3.11;100.00;96755.06;5054449;28;20047;-69
2023/11/16 07:23:41;;;;;;;19.80;14.73;;;;;;;3.09;100.00;96739.13;5054757;28;20066;-69
2023/11/16 07:26:09;;;;;;;25.45;16.02;;;;;;;3.07;100.00;96730.53;5056113;28;20799;-70
2023/11/16 07:28:42;;;;;;;94.85;84.93;;;;;;;3.09;100.00;96731.00;5060217;28;20055;-69
2023/11/16 07:31:08;;;;;;;19.75;17.73;;;;;;;3.37;100.00;96728.00;5051010;28;20049;-70
2023/11/16 07:33:34;;;;;;;13.70;8.10;;;;;;;3.67;100.00;96726.22;5060191;28;20052;-70
2023/11/16 07:36:01;;;;;;;7.35;4.78;;;;;;;3.80;100.00;96724.47;5061113;28;20135;-70
2023/11/16 07:38:28;;;;;;;13.75;8.63;;;;;;;3.91;100.00;96730.34;5055291;28;20049;-70
2023/11/16 07:40:56;;;;;;;9.15;5.93;;;;;;;3.89;100.00;96725.22;5061250;28;20110;-70
2023/11/16 07:43:22;;;;;;;9.77;7.47;;;;;;;3.83;100.00;96715.66;5063382;28;20059;-71
2023/11/16 07:45:48;;;;;;;8.27;5.03;;;;;;;3.80;100.00;96706.28;5068628;28;20052;-70
2023/11/16 07:48:13;;;;;;;7.65;4.72;;;;;;;3.88;100.00;96707.38;5052420;28;20422;-69
2023/11/16 07:50:39;;;;;;;14.50;8.65;;;;;;;4.06;100.00;96718.97;5048720;28;20045;-69
2023/11/16 07:53:09;;;;;;;9.43;5.10;;;;;;;4.20;100.00;96722.25;5046317;28;20044;-72
2023/11/16 07:55:35;;;;;;;11.75;5.82;;;;;;;4.51;100.00;96713.03;5060124;28;20143;-70
2023/11/16 07:58:03;;;;;;;8.35;6.35;;;;;;;4.61;100.00;96720.03;5054834;28;20164;-69
2023/11/16 08:00:34;;;;;;;4.70;3.30;;;;;;;4.78;100.00;96711.00;5045736;28;20079;-71
2023/11/16 08:05:46;;;;;;;6.55;3.20;;;;;;;5.26;100.00;96704.28;5059912;28;20044;-69
2023/11/16 08:08:14;;;;;;;8.02;3.90;;;;;;;5.12;100.00;96703.75;5055463;28;20041;-69
2023/11/16 08:10:44;;;;;;;7.25;4.72;;;;;;;5.13;100.00;96705.31;5061228;28;20106;-69
2023/11/16 08:13:12;;;;;;;4.45;2.70;;;;;;;5.11;100.00;96697.53;5055056;28;20380;-70
2023/11/16 08:15:41;;;;;;;7.03;4.43;;;;;;;5.06;100.00;96707.75;5053975;28;20352;-69
2023/11/16 08:18:14;;;;;;;7.85;5.10;;;;;;;5.04;100.00;96704.59;5050999;28;20128;-71
2023/11/16 08:20:40;;;;;;;4.95;2.50;;;;;;;4.95;100.00;96700.03;5045284;28;20139;-69
2023/11/16 08:23:05;;;;;;;7.10;3.67;;;;;;;5.01;100.00;96699.84;5052307;28;20120;-68
2023/11/16 08:25:31;;;;;;;6.05;3.70;;;;;;;5.10;100.00;96697.84;5045879;28;20048;-69
2023/11/16 08:27:57;;;;;;;12.52;8.35;;;;;;;5.22;100.00;96694.41;5058110;28;20372;-69
2023/11/16 08:30:23;;;;;;;9.93;5.72;;;;;;;5.38;100.00;96698.09;5034472;28;20451;-69
2023/11/16 08:32:48;;;;;;;7.85;4.35;;;;;;;5.52;100.00;96708.69;5051516;28;20067;-71
2023/11/16 08:35:14;;;;;;;4.88;4.18;;;;;;;5.81;100.00;96698.81;5068875;28;20051;-69
2023/11/16 08:37:41;;;;;;;5.00;2.83;;;;;;;5.81;100.00;96699.63;5026698;28;20052;-69
2023/11/16 08:40:12;;;;;;;4.47;2.60;;;;;;;5.72;100.00;96694.25;5042844;28;20051;-71
2023/11/16 08:42:43;;;;;;;5.68;2.42;;;;;;;5.96;100.00;96698.22;5039705;28;20128;-70
2023/11/16 08:45:17;;;;;;;5.95;1.92;;;;;;;5.98;100.00;96684.28;5059283;28;20511;-69
2023/11/16 08:47:56;;;;;;;3.47;1.98;;;;;;;6.36;100.00;96678.56;5052282;28;20032;-69
2023/11/16 08:50:22;;;;;;;2.00;1.30;;;;;;;6.44;100.00;96683.09;5035874;28;21118;-69
2023/11/16 08:52:49;;;;;;;3.25;2.00;;;;;;;6.25;100.00;96666.56;5059332;28;20060;-69
2023/11/16 08:55:21;;;;;;;4.30;2.10;;;;;;;5.88;100.00;96658.31;5053713;28;20115;-68
2023/11/16 08:57:47;;;;;;;7.20;2.63;;;;;;;5.87;100.00;96654.78;5059255;28;20045;-68
2023/11/16 09:03:16;;;;;;;5.03;2.80;;;;;;;6.01;100.00;96643.63;4966079;28;20038;-69
2023/11/16 09:05:42;;;;;;;7.78;3.95;;;;;;;6.21;100.00;96641.97;5044692;28;20127;-70
2023/11/16 09:08:11;;;;;;;10.65;3.75;;;;;;;6.22;100.00;96640.81;5056218;28;20140;-68
2023/11/16 09:10:36;;;;;;;3.45;2.35;;;;;;;6.54;100.00;96637.53;5059897;28;20049;-69
2023/11/16 09:13:03;;;;;;;3.13;2.30;;;;;;;6.29;100.00;96627.44;5072955;28;20521;-70
2023/11/16 09:15:29;;;;;;;25.90;10.63;;;;;;;6.27;100.00;96626.19;5057536;28;20041;-69
2023/11/16 09:17:55;;;;;;;4.28;2.38;;;;;;;6.01;100.00;96615.66;5057338;28;20542;-68
2023/11/16 09:20:24;;;;;;;7.60;3.72;;;;;;;6.03;100.00;96607.94;5034214;28;20131;-69
2023/11/16 09:22:50;;;;;;;6.68;2.53;;;;;;;6.11;100.00;96599.66;5055964;28;20079;-68
2023/11/16 09:25:20;;;;;;;6.05;2.83;;;;;;;6.43;100.00;96596.38;5045585;28;20174;-68
2023/11/16 09:27:56;;;;;;;5.15;2.40;;;;;;;6.43;100.00;96599.91;5059593;28;20135;-68
2023/11/16 09:30:23;;;;;;;6.95;2.70;;;;;;;6.39;100.00;96590.03;5047743;28;20040;-68
2023/11/16 09:32:50;;;;;;;6.65;2.70;;;;;;;6.53;100.00;96586.94;5046893;28;20087;-69
2023/11/16 09:35:21;;;;;;;6.30;2.70;;;;;;;6.81;100.00;96585.06;5037900;28;20041;-68
2023/11/16 09:37:53;;;;;;;6.13;2.50;;;;;;;6.93;100.00;96586.94;5032764;28;20065;-69
2023/11/16 09:40:21;;;;;;;2.75;2.00;;;;;;;6.96;100.00;96583.53;5041551;28;20044;-69
2023/11/16 09:42:56;;;;;;;4.20;1.77;;;;;;;7.00;100.00;96576.25;5055152;28;20111;-69
2023/11/16 09:45:27;;;;;;;4.47;2.20;;;;;;;6.81;100.00;96579.63;5054083;28;20445;-69
2023/11/16 09:48:00;;;;;;;5.60;1.77;;;;;;;6.96;100.00;96569.94;5050773;28;20099;-68
2023/11/16 09:50:27;;;;;;;2.38;1.65;;;;;;;7.14;100.00;96567.72;5045276;28;20045;-69
2023/11/16 09:53:00;;;;;;;3.40;2.00;;;;;;;7.17;100.00;96568.97;5065254;28;20040;-69
2023/11/16 09:55:33;;;;;;;2.70;1.90;;;;;;;7.39;100.00;96570.31;5042734;28;20040;-68
2023/11/16 09:58:08;;;;;;;4.15;2.15;;;;;;;7.77;100.00;96564.28;5080759;28;20063;-71
2023/11/16 10:00:36;;;;;;;6.93;2.20;;;;;;;7.93;100.00;96552.59;5048235;28;20047;-71
2023/11/16 10:03:05;;;;;;;4.50;2.05;;;;;;;8.12;100.00;96549.94;5074841;28;20047;-70
2023/11/16 10:05:36;;;;;;;3.60;1.75;;;;;;;8.30;100.00;96546.81;5076726;28;20106;-70
2023/11/16 10:08:04;;;;;;;5.50;2.08;;;;;;;8.32;100.00;96544.53;5046344;28;20032;-70
2023/11/16 10:10:29;;;;;;;4.45;1.95;;;;;;;8.46;100.00;96536.69;5063732;28;20048;-69
2023/11/16 10:12:56;;;;;;;5.20;2.10;;;;;;;8.63;100.00;96542.91;5064211;28;20047;-70
2023/11/16 10:15:22;;;;;;;3.72;1.98;;;;;;;8.69;100.00;96536.00;5060541;28;20979;-69
2023/11/16 10:17:48;;;;;;;3.80;1.92;;;;;;;8.60;100.00;96514.38;5064782;28;20098;-69
2023/11/16 10:20:16;;;;;;;10.68;2.65;;;;;;;8.64;100.00;96504.31;5041476;28;20033;-69
2023/11/16 10:22:44;;;;;;;5.95;2.25;;;;;;;8.31;100.00;96483.72;5067766;28;20036;-69
2023/11/16 10:25:14;;;;;;;3.45;2.10;;;;;;;7.98;100.00;96470.53;5069605;28;20139;-69
2023/11/16 10:27:41;;;;;;;4.85;2.40;;;;;;;7.50;100.00;96456.16;5069082;28;20052;-68
2023/11/16 10:30:11;;;;;;;7.75;2.00;;;;;;;7.68;100.00;96451.13;5050932;28;20039;-68
2023/11/16 10:32:49;;;;;;;5.60;2.70;;;;;;;7.43;100.00;96434.97;5059030;28;20045;-69
2023/11/16 10:35:15;;;;;;;7.35;2.42;;;;;;;7.68;100.00;96441.00;5059027;28;20029;-68
2023/11/16 10:37:44;;;;;;;7.38;2.55;;;;;;;7.37;100.00;96426.25;5065161;28;20040;-68
2023/11/16 10:40:11;;;;;;;9.15;3.00;;;;;;;7.43;100.00;96419.38;5051574;28;20048;-68
2023/11/16 10:42:38;;;;;;;6.07;2.50;;;;;;;7.75;100.00;96413.13;5064865;28;20044;-69
2023/11/16 10:45:05;;;;;;;7.35;2.45;;;;;;;8.13;100.00;96404.22;5060777;28;20040;-70
2023/11/16 10:47:32;;;;;;;4.93;2.20;;;;;;;8.40;100.00;96388.78;5064870;28;20048;-68
2023/11/16 10:49:58;;;;;;;6.90;2.00;;;;;;;8.55;100.00;96383.63;5065270;28;20044;-68
2023/11/16 10:52:26;;;;;;;4.50;1.95;;;;;;;8.56;100.00;96360.66;5061131;28;20056;-69
2023/11/16 10:54:55;;;;;;;3.35;2.08;;;;;;;8.73;100.00;96337.53;5081629;28;20502;-69
2023/11/16 10:57:21;;;;;;;4.18;2.28;;;;;;;8.79;100.00;96314.25;5060039;28;20040;-70
2023/11/16 10:59:50;;;;;;;10.63;2.00;;;;;;;7.73;100.00;96293.53;5056371;28;20427;-70
2023/11/16 11:02:20;;;;;;;3.70;1.90;;;;;;;7.78;100.00;96285.06;5047040;28;20036;-69
2023/11/16 11:04:53;;;;;;;4.75;2.20;;;;;;;8.27;100.00;96286.41;5056449;28;20045;-69
2023/11/16 11:07:19;;;;;;;6.78;2.03;;;;;;;8.13;100.00;96286.13;5055970;28;20040;-70
2023/11/16 11:09:47;;;;;;;10.30;1.60;;;;;;;7.84;100.00;96266.47;5058476;28;20048;-69
2023/11/16 11:12:13;;;;;;;3.30;1.77;;;;;;;8.09;100.00;96280.59;5043353;28;20626;-69
2023/11/16 11:14:52;;;;;;;3.15;1.80;;;;;;;8.12;100.00;96263.53;5047462;28;20451;-70
2023/11/16 11:17:18;;;;;;;4.10;1.80;;;;;;;8.13;100.00;96237.81;5052332;28;20041;-70
2023/11/16 11:19:54;;;;;;;3.22;1.60;;;;;;;8.01;100.00;96233.31;5042294;28;20045;-69
2023/11/16 11:22:24;;;;;;;6.55;1.60;;;;;;;8.02;100.00;96221.25;5055421;28;20036;-70
2023/11/16 11:24:50;;;;;;;3.20;1.40;;;;;;;8.38;100.00;96200.06;5061301;28;20048;-70
2023/11/16 11:27:15;;;;;;;3.42;1.77;;;;;;;8.39;100.00;96198.91;5056464;28;20029;-70
2023/11/16 11:29:42;;;;;;;4.07;1.60;;;;;;;8.08;100.00;96163.69;5061045;28;20099;-69
2023/11/16 11:32:31;;;;;;;5.43;1.50;;;;;;;7.82;100.00;96154.28;5044265;28;20454;-70
2023/11/16 11:34:57;;;;;;;2.90;1.83;;;;;;;7.82;100.00;96138.69;5042276;28;20045;-69
2023/11/16 11:37:37;;;;;;;6.97;2.00;;;;;;;7.66;100.00;96127.09;5055962;28;20055;-69